Turah, Montana
Current Conditions -  °F | °C
As of 12:53 AM on Friday 24 Oct 2014 (Local Time) from KMSO Reporting Station
Overcast Overcast  
Wind Chill: 44°   Ceiling: 3700
Heat Index: 46°   Visibility: 10mi
Dew Point: 44°   Wind: 5mph
Humidity: 93%   Direction: 270°W
Pressure: 30.02"   Gusts: NA
Location:  46.774°N, 113.676°W
Report Text: KMSO 240653Z AUTO 27004KT 10SM BKN037 OVC050 08/07 A3002 RMK AO2 RAB00E17 SLP166 P0000 T00780067 401610078
Loading
Personal Weather Stations






























Interactive Weather Map
Tropical Storm Tracking
New forecast layout! Learn more

10-Day Weather Forecast

Advertisements
Track Severe Weather on mobile